Main page
METAR-TAF:

METAR-TAF

Airports :

Edmundo Carvajal Airport

Macas, Ecuador

latitude: 02-17-57-S, longitude: 078-07-15-W, elevation: 1052 m

Current weather observation

The report was made 45 minutes ago, at 20:00 UTC
Wind 3 kt from the West
Temperature 24°C
Humidity 65%
Pressure 1020 hPa
Visibility 10 km or more
Scattered clouds at a height of 3000 ft
Scattered clouds at a height of 10000 ft

METAR: SEMC 162000Z 27003KT 9999 SCT030 SCT100 24/17 Q1020 RMK A3012

Time: 15:45 (20:45 UTC)


TAF: missing

Weather observations and forecasts of more than 4000 airports (METAR and TAF reports).

The available stations are represented by yellow and red dots on the map.

Hover mouse over dot to see the name of the station.

Then click to see weather observations and forecasts.

To change the map : click on the green buttons with a black cross to zoom in, on the green button with a dash to zoom out, or on the green arrows for adjacent maps.


METAR-TAF: